createdAt,value
2022-12-31T00:01:46.213Z,8.90
2022-12-31T00:06:49.919Z,8.60
2022-12-31T00:11:53.533Z,8.70
2022-12-31T00:16:57.083Z,8.60
2022-12-31T00:22:00.664Z,9.60
2022-12-31T00:27:04.297Z,9.80
2022-12-31T00:32:07.913Z,8.10
2022-12-31T00:37:11.934Z,7.40
2022-12-31T00:42:15.446Z,8.20
2022-12-31T00:47:19.063Z,7.30
2022-12-31T00:52:22.478Z,7.40
2022-12-31T00:57:25.993Z,8.00
2022-12-31T01:02:29.778Z,7.40
2022-12-31T01:07:33.536Z,6.90
2022-12-31T01:12:37.063Z,6.90
2022-12-31T01:17:40.569Z,8.10
2022-12-31T01:22:44.090Z,7.10
2022-12-31T01:27:47.902Z,8.00
2022-12-31T01:32:51.315Z,6.90
2022-12-31T01:37:55.140Z,6.90
2022-12-31T01:42:59.269Z,7.30
2022-12-31T01:48:02.999Z,6.20
2022-12-31T01:53:09.165Z,5.60
2022-12-31T01:58:27.139Z,8.20
2022-12-31T02:03:31.326Z,7.80
2022-12-31T02:08:41.767Z,8.10
2022-12-31T02:13:45.863Z,8.70
2022-12-31T02:19:05.371Z,8.90
2022-12-31T02:24:41.020Z,7.90
2022-12-31T02:30:09.526Z,7.90
2022-12-31T02:35:18.670Z,7.00
2022-12-31T02:40:23.239Z,8.20
2022-12-31T02:46:06.186Z,9.10
2022-12-31T02:51:32.499Z,10.20
2022-12-31T02:56:50.047Z,9.70
2022-12-31T03:02:16.193Z,9.50
2022-12-31T03:07:28.414Z,9.10
2022-12-31T03:12:47.187Z,9.60
2022-12-31T03:17:59.938Z,10.40
2022-12-31T03:23:08.459Z,9.00
2022-12-31T03:28:16.048Z,8.90
2022-12-31T03:33:19.880Z,9.90
2022-12-31T03:38:23.292Z,9.60
2022-12-31T03:43:26.809Z,9.30
2022-12-31T03:48:30.835Z,10.40
2022-12-31T03:53:35.906Z,9.10
2022-12-31T03:58:39.304Z,9.20
2022-12-31T04:03:42.817Z,9.20
2022-12-31T04:08:46.235Z,9.20
2022-12-31T04:13:49.845Z,8.20
2022-12-31T04:18:53.260Z,7.00
2022-12-31T04:23:56.880Z,9.70
2022-12-31T04:29:00.495Z,9.40
2022-12-31T04:34:04.115Z,9.00
2022-12-31T04:39:07.746Z,8.80
2022-12-31T04:44:11.145Z,9.20
2022-12-31T04:49:14.776Z,10.90
2022-12-31T04:54:18.279Z,9.60
2022-12-31T04:59:21.909Z,9.70
2022-12-31T05:04:25.925Z,9.80
2022-12-31T05:09:30.054Z,8.80
2022-12-31T05:19:36.881Z,8.30
2022-12-31T05:24:40.403Z,9.50
2022-12-31T05:29:43.910Z,5.80
2022-12-31T05:34:47.643Z,8.90
2022-12-31T05:39:51.147Z,7.30
2022-12-31T05:44:54.669Z,7.70
2022-12-31T05:49:58.181Z,7.30
2022-12-31T05:55:01.696Z,6.90
2022-12-31T06:00:07.182Z,5.60
2022-12-31T06:05:10.730Z,8.10
2022-12-31T06:10:14.160Z,9.00
2022-12-31T06:15:18.012Z,6.50
2022-12-31T06:20:21.434Z,8.40
2022-12-31T06:25:24.936Z,7.40
2022-12-31T06:30:28.560Z,7.00
2022-12-31T06:35:32.073Z,7.20
2022-12-31T06:40:38.056Z,7.70
2022-12-31T06:45:41.462Z,6.90
2022-12-31T06:50:44.965Z,7.60
2022-12-31T06:55:49.737Z,4.60
2022-12-31T07:01:31.803Z,6.80
2022-12-31T07:06:48.357Z,7.10
2022-12-31T07:11:56.683Z,6.00
2022-12-31T07:17:21.602Z,6.40
2022-12-31T07:22:25.839Z,8.10
2022-12-31T07:27:47.384Z,7.00
2022-12-31T07:33:19.261Z,9.00
2022-12-31T07:38:37.617Z,6.80
2022-12-31T07:44:11.659Z,9.20
2022-12-31T07:49:16.082Z,7.20
2022-12-31T07:59:53.529Z,6.00
2022-12-31T08:05:38.317Z,5.60
2022-12-31T08:11:03.842Z,7.10
2022-12-31T08:16:11.996Z,6.00
2022-12-31T08:21:53.988Z,5.40
2022-12-31T08:27:17.366Z,6.00
2022-12-31T08:32:32.360Z,6.30
2022-12-31T08:37:43.971Z,4.70
2022-12-31T08:43:18.808Z,5.70
2022-12-31T08:48:41.369Z,5.20
2022-12-31T08:53:45.302Z,4.30
2022-12-31T08:59:30.083Z,4.60
2022-12-31T09:04:45.480Z,5.30
2022-12-31T09:10:06.698Z,5.50
2022-12-31T09:15:20.866Z,5.20
2022-12-31T09:20:41.818Z,4.70
2022-12-31T09:26:01.186Z,5.80
2022-12-31T09:31:14.209Z,4.80
2022-12-31T09:36:36.582Z,4.30
2022-12-31T09:42:22.994Z,4.30
2022-12-31T09:48:15.883Z,4.30
2022-12-31T09:53:27.068Z,4.50
2022-12-31T09:58:51.675Z,4.30
2022-12-31T10:09:58.816Z,5.30
2022-12-31T10:15:24.347Z,5.50
2022-12-31T10:20:47.125Z,4.70
2022-12-31T10:25:59.639Z,6.70
2022-12-31T10:31:17.292Z,7.20
2022-12-31T10:36:33.228Z,5.90
2022-12-31T10:42:04.457Z,6.20
2022-12-31T10:47:26.611Z,5.20
2022-12-31T10:52:35.641Z,5.90
2022-12-31T10:58:11.017Z,5.00
2022-12-31T11:03:32.924Z,4.80
2022-12-31T11:09:07.714Z,5.30
2022-12-31T11:20:04.003Z,4.40
2022-12-31T11:25:33.832Z,4.20
2022-12-31T11:30:56.181Z,4.00
2022-12-31T11:36:38.722Z,4.20
2022-12-31T11:42:04.663Z,4.10
2022-12-31T11:47:49.649Z,4.10
2022-12-31T11:53:44.772Z,4.00
2022-12-31T11:58:51.768Z,3.50
2022-12-31T12:03:55.449Z,3.30
2022-12-31T12:09:13.754Z,3.30
2022-12-31T12:14:37.952Z,3.00
2022-12-31T12:19:53.447Z,3.40
2022-12-31T12:25:16.534Z,3.50
2022-12-31T12:30:22.400Z,3.70
2022-12-31T12:35:31.884Z,4.20
2022-12-31T12:40:36.104Z,4.20
2022-12-31T12:50:56.014Z,3.70
2022-12-31T12:56:07.212Z,4.00
2022-12-31T13:01:21.431Z,4.80
2022-12-31T13:06:37.222Z,3.90
2022-12-31T13:12:05.580Z,4.10
2022-12-31T13:17:32.957Z,4.30
2022-12-31T13:22:45.069Z,3.80
2022-12-31T13:27:54.549Z,4.00
2022-12-31T13:33:04.698Z,4.00
2022-12-31T13:38:23.476Z,4.30
2022-12-31T13:43:50.997Z,4.10
2022-12-31T13:49:03.472Z,5.30
2022-12-31T13:54:16.005Z,3.30
2022-12-31T13:59:29.272Z,3.10
2022-12-31T14:04:48.018Z,4.30
2022-12-31T14:09:51.427Z,4.20
2022-12-31T14:15:00.995Z,3.80
2022-12-31T14:20:32.970Z,3.70
2022-12-31T14:25:46.827Z,4.00
2022-12-31T14:30:53.540Z,4.50
2022-12-31T14:36:25.498Z,3.20
2022-12-31T14:41:50.213Z,3.50
2022-12-31T14:47:41.242Z,3.20
2022-12-31T14:53:10.051Z,3.90
2022-12-31T14:58:30.016Z,3.00
2022-12-31T15:03:45.108Z,2.90
2022-12-31T15:09:08.815Z,3.20
2022-12-31T15:14:37.585Z,3.10
2022-12-31T15:20:11.498Z,2.50
2022-12-31T15:25:19.997Z,3.60
2022-12-31T15:30:30.659Z,4.20
2022-12-31T15:35:56.217Z,3.30
2022-12-31T15:41:00.953Z,3.10
2022-12-31T15:46:16.715Z,4.90
2022-12-31T15:51:26.112Z,4.60
2022-12-31T15:56:39.767Z,3.60
2022-12-31T16:01:45.160Z,3.80
2022-12-31T16:06:51.198Z,4.20
2022-12-31T16:11:57.387Z,3.70
2022-12-31T16:17:01.720Z,4.60
2022-12-31T16:22:17.260Z,3.40
2022-12-31T16:27:20.929Z,3.10
2022-12-31T16:32:24.549Z,3.50
2022-12-31T16:37:28.075Z,3.90
2022-12-31T16:42:31.690Z,4.80
2022-12-31T16:47:38.473Z,3.90
2022-12-31T16:52:45.475Z,4.20
2022-12-31T16:58:00.669Z,4.60
2022-12-31T17:03:22.359Z,4.00
2022-12-31T17:08:42.222Z,4.00
2022-12-31T17:13:54.861Z,4.60
2022-12-31T17:18:58.859Z,4.30
2022-12-31T17:24:06.237Z,4.80
2022-12-31T17:29:26.075Z,4.10
2022-12-31T17:34:33.891Z,3.80
2022-12-31T17:40:49.856Z,3.50
2022-12-31T17:45:26.172Z,4.20
2022-12-31T17:50:29.790Z,3.40
2022-12-31T17:55:33.941Z,3.00
2022-12-31T18:05:41.263Z,3.00
2022-12-31T18:10:45.507Z,3.10
2022-12-31T18:20:55.362Z,3.50
2022-12-31T18:25:58.907Z,2.90
2022-12-31T18:31:02.525Z,4.00
2022-12-31T18:36:12.285Z,3.70
2022-12-31T18:41:21.063Z,4.30
2022-12-31T18:46:25.565Z,4.10
2022-12-31T18:51:32.025Z,3.90
2022-12-31T18:56:36.074Z,4.20
2022-12-31T19:01:41.311Z,4.80
2022-12-31T19:06:44.959Z,4.80
2022-12-31T19:11:49.285Z,6.00
2022-12-31T19:21:57.965Z,4.50
2022-12-31T19:27:02.511Z,5.30
2022-12-31T19:32:06.332Z,4.30
2022-12-31T19:37:15.715Z,3.80
2022-12-31T19:42:19.290Z,4.20
2022-12-31T19:47:22.903Z,4.50
2022-12-31T19:52:26.430Z,5.30
2022-12-31T19:57:29.837Z,5.50
2022-12-31T20:03:36.976Z,5.00
2022-12-31T20:08:43.450Z,5.00
2022-12-31T20:13:48.582Z,4.20
2022-12-31T20:18:52.503Z,5.00
2022-12-31T20:23:56.132Z,5.80
2022-12-31T20:28:59.739Z,4.90
2022-12-31T20:34:03.354Z,5.70
2022-12-31T20:39:07.484Z,5.00
2022-12-31T20:44:11.110Z,5.30
2022-12-31T20:49:14.722Z,5.20
2022-12-31T20:54:18.647Z,4.40
2022-12-31T20:59:22.058Z,4.70
2022-12-31T21:04:26.114Z,4.90
2022-12-31T21:14:33.123Z,5.30
2022-12-31T21:19:36.849Z,5.20
2022-12-31T21:24:40.250Z,4.10
2022-12-31T21:30:16.364Z,4.20
2022-12-31T21:35:41.260Z,4.30
2022-12-31T21:40:31.669Z,4.10
2022-12-31T21:45:35.082Z,4.10
2022-12-31T21:50:38.706Z,4.70
2022-12-31T21:56:00.462Z,3.60
2022-12-31T22:01:23.081Z,4.20
2022-12-31T22:06:27.432Z,3.80
2022-12-31T22:16:34.499Z,3.10
2022-12-31T22:21:38.091Z,4.40
2022-12-31T22:26:46.459Z,3.10
2022-12-31T22:31:50.538Z,3.10
2022-12-31T22:36:54.154Z,3.10
2022-12-31T22:41:57.669Z,2.70
2022-12-31T22:47:01.146Z,3.20
2022-12-31T22:52:08.806Z,3.20
2022-12-31T22:57:19.688Z,3.20
2022-12-31T23:02:23.824Z,3.30
2022-12-31T23:07:27.337Z,2.50
2022-12-31T23:12:30.747Z,5.20
2022-12-31T23:17:52.899Z,3.20
2022-12-31T23:23:08.779Z,2.60
2022-12-31T23:28:15.568Z,2.50
2022-12-31T23:33:24.466Z,2.10
2022-12-31T23:38:27.952Z,1.90
2022-12-31T23:43:31.469Z,2.70
2022-12-31T23:48:35.092Z,2.00
2022-12-31T23:53:39.010Z,2.20
2022-12-31T23:58:42.736Z,2.60
